Time;durP1;ratioP1;P1;durP2;ratioP2;P2;SDS_P1;SDS_P2;PMS_P1;PMS_P2;Temp;Humidity;BMP_temperature;BMP_pressure;BME280_temperature;BME280_humidity;BME280_pressure;Samples;Min_cycle;Max_cycle;Signal;HPM_P1;HPM_P2
2021/08/19 00:02:05;;;;;;;0.82;0.82;;;22.60;53.00;;;26.33;36.24;100618.44;5113001;28;20048;-35
2021/08/19 00:04:31;;;;;;;0.80;0.80;;;22.60;52.90;;;26.32;36.17;100607.84;5113033;28;20047;-36
2021/08/19 00:06:57;;;;;;;0.73;0.73;;;22.60;53.00;;;26.33;36.17;100623.78;5112906;28;20051;-35
2021/08/19 00:09:23;;;;;;;0.70;0.70;;;22.60;53.00;;;26.33;36.35;100618.44;5112757;28;20047;-35
2021/08/19 00:11:49;;;;;;;0.90;0.90;;;22.60;53.00;;;26.31;36.11;100619.53;5113372;28;20048;-35
2021/08/19 00:14:15;;;;;;;0.82;0.82;;;22.60;53.00;;;26.32;36.17;100624.78;5112705;28;20062;-36
2021/08/19 00:16:41;;;;;;;0.90;0.90;;;22.60;53.00;;;26.31;36.28;100619.53;5112474;28;20040;-35
2021/08/19 00:19:06;;;;;;;0.80;0.80;;;22.60;53.00;;;26.28;36.34;100619.81;5113201;28;20043;-35
2021/08/19 00:21:33;;;;;;;0.80;0.80;;;22.60;53.00;;;26.29;36.31;100625.03;5112859;28;20055;-35
2021/08/19 00:23:59;;;;;;;0.80;0.80;;;22.60;53.00;;;26.29;36.32;100625.03;5113480;28;20043;-35
2021/08/19 00:26:25;;;;;;;0.90;0.90;;;22.60;53.60;;;26.30;36.29;100633.94;5116034;28;20071;-36
2021/08/19 00:28:51;;;;;;;0.90;0.90;;;22.60;53.10;;;26.30;36.29;100632.09;5116209;28;20057;-36
2021/08/19 00:31:17;;;;;;;0.70;0.70;;;22.60;53.10;;;26.28;36.33;100619.81;5116449;28;20047;-35
2021/08/19 00:33:45;;;;;;;0.80;0.80;;;22.60;53.10;;;26.28;36.41;100623.34;5116170;28;20055;-35
2021/08/19 00:36:11;;;;;;;1.00;0.90;;;22.60;53.10;;;26.29;36.38;100621.53;5116552;28;20078;-35
2021/08/19 00:38:39;;;;;;;0.73;0.73;;;22.60;53.10;;;26.27;36.35;100620.81;5116303;28;20051;-35
2021/08/19 00:41:05;;;;;;;1.02;0.90;;;22.60;53.10;;;26.27;36.34;100618.97;5116010;28;20130;-35
2021/08/19 00:43:34;;;;;;;0.90;0.90;;;22.50;53.10;;;26.27;36.44;100618.13;5115899;28;20122;-35
2021/08/19 00:46:03;;;;;;;0.90;0.90;;;22.50;53.10;;;26.24;36.43;100613.88;5115890;28;20039;-35
2021/08/19 00:48:30;;;;;;;1.10;1.00;;;22.60;53.20;;;26.26;36.30;100614.59;5115776;28;20075;-35
2021/08/19 00:50:56;;;;;;;1.02;1.00;;;22.50;53.70;;;26.24;36.24;100614.75;5115625;28;20051;-35
2021/08/19 00:53:21;;;;;;;0.70;0.63;;;22.50;53.20;;;26.26;36.67;100614.59;5115794;28;20127;-35
2021/08/19 00:55:50;;;;;;;0.80;0.80;;;22.50;53.20;;;26.19;36.39;100598.19;5116032;28;20043;-35
2021/08/19 00:58:18;;;;;;;0.90;0.90;;;22.50;53.20;;;26.22;36.41;100599.78;5115662;28;20048;-35
2021/08/19 01:00:44;;;;;;;0.90;0.90;;;22.50;53.20;;;26.22;36.34;100594.41;5097383;28;20046;-35
2021/08/19 01:03:09;;;;;;;0.80;0.80;;;22.50;53.20;;;26.22;36.47;100591.72;5115608;28;20051;-35
2021/08/19 01:05:40;;;;;;;0.90;0.90;;;22.50;53.20;;;26.22;36.42;100605.13;5115611;28;20116;-35
2021/08/19 01:08:08;;;;;;;0.90;0.90;;;22.50;53.20;;;26.21;36.26;100612.34;5115659;28;20050;-35
2021/08/19 01:10:35;;;;;;;0.98;0.88;;;22.50;53.20;;;26.19;36.58;100613.44;5115478;28;20049;-35
2021/08/19 01:13:01;;;;;;;0.80;0.80;;;22.50;53.30;;;26.21;36.37;100623.06;5115590;28;20395;-35
2021/08/19 01:15:27;;;;;;;1.13;1.02;;;22.50;53.80;;;26.20;36.39;100624.03;5115505;28;20134;-35
2021/08/19 01:18:01;;;;;;;0.80;0.80;;;22.50;53.30;;;26.16;36.52;100621.75;5115317;28;20040;-35
2021/08/19 01:20:30;;;;;;;0.73;0.73;;;22.50;53.30;;;26.18;36.45;100622.47;5096943;28;20051;-35
2021/08/19 01:22:57;;;;;;;0.90;0.90;;;22.50;53.30;;;26.17;36.56;100626.97;5115340;28;20059;-35
2021/08/19 01:25:24;;;;;;;1.17;1.08;;;22.50;53.30;;;26.19;36.58;100624.16;5115253;28;20044;-35
2021/08/19 01:27:54;;;;;;;0.70;0.70;;;22.50;53.30;;;26.16;36.59;100627.97;5115345;28;20043;-35
2021/08/19 01:30:21;;;;;;;1.02;0.95;;;22.50;53.40;;;26.18;36.58;100633.19;5115334;28;20130;-35
2021/08/19 01:32:47;;;;;;;0.80;0.80;;;22.50;53.30;;;26.15;36.56;100628.09;5115191;28;20051;-35
2021/08/19 01:35:25;;;;;;;1.10;0.88;;;22.40;53.30;;;26.15;36.47;100636.97;5114710;28;20111;-35
2021/08/19 01:37:51;;;;;;;1.20;1.10;;;22.40;53.30;;;26.17;36.58;100626.13;5114748;28;20086;-35
2021/08/19 01:40:17;;;;;;;0.80;0.80;;;22.40;53.40;;;26.15;36.40;100628.09;5115462;28;20044;-35
2021/08/19 01:42:43;;;;;;;0.85;0.85;;;22.40;53.30;;;26.14;36.63;100632.59;5096320;28;20047;-35
2021/08/19 01:45:15;;;;;;;0.90;0.90;;;22.40;53.40;;;26.14;36.59;100623.72;5114960;28;20043;-35
2021/08/19 01:47:41;;;;;;;0.75;0.70;;;22.50;53.40;;;26.16;36.63;100624.41;5115052;28;20052;-35
2021/08/19 01:50:08;;;;;;;0.82;0.82;;;22.40;53.40;;;26.13;36.59;100624.69;5115023;28;20082;-35
2021/08/19 01:52:34;;;;;;;0.80;0.80;;;22.40;53.40;;;26.14;36.73;100634.44;5114881;28;20049;-35
2021/08/19 01:55:00;;;;;;;1.00;1.00;;;22.40;53.40;;;26.15;36.53;100633.47;5114769;28;20051;-35
2021/08/19 01:57:25;;;;;;;0.60;0.60;;;22.40;53.40;;;26.14;36.54;100626.41;5114625;28;20050;-36
2021/08/19 01:59:51;;;;;;;0.80;0.80;;;22.40;53.40;;;26.13;36.55;100613.97;5114826;28;20051;-35
2021/08/19 02:02:17;;;;;;;0.80;0.80;;;22.40;53.40;;;26.12;36.62;100623.84;5115049;28;20044;-35
2021/08/19 02:04:43;;;;;;;0.80;0.80;;;22.40;53.50;;;26.13;36.59;100636.28;5114751;28;20043;-36
2021/08/19 02:07:09;;;;;;;0.80;0.80;;;22.40;53.50;;;26.09;36.64;100626.78;5114306;28;20134;-35
2021/08/19 02:09:35;;;;;;;0.95;0.95;;;22.40;54.00;;;26.09;36.63;100629.47;5114531;28;20048;-35
2021/08/19 02:12:02;;;;;;;0.80;0.80;;;22.40;53.50;;;26.12;36.58;100633.72;5114614;28;20052;-35
2021/08/19 02:14:28;;;;;;;0.82;0.82;;;22.40;53.50;;;26.11;36.66;100629.34;5114550;28;20061;-36
2021/08/19 02:16:54;;;;;;;0.90;0.90;;;22.40;53.50;;;26.11;36.62;100629.34;5114447;28;20059;-35
2021/08/19 02:19:22;;;;;;;0.80;0.80;;;22.40;53.50;;;26.09;36.70;100632.16;5114700;28;20044;-35
2021/08/19 02:21:47;;;;;;;0.85;0.85;;;22.40;53.50;;;26.07;36.64;100634.97;5114756;28;20052;-35
2021/08/19 02:24:13;;;;;;;0.82;0.82;;;22.40;53.50;;;26.09;36.67;100628.63;5114832;28;20048;-35
2021/08/19 02:26:39;;;;;;;0.70;0.70;;;22.40;53.50;;;26.11;36.60;100642.72;5114405;28;20043;-35
2021/08/19 02:29:05;;;;;;;0.75;0.75;;;22.40;53.50;;;26.11;36.67;100642.72;5114374;28;20039;-35
2021/08/19 02:31:30;;;;;;;0.90;0.90;;;22.40;53.50;;;26.10;36.74;100639.22;5114707;28;20047;-35
2021/08/19 02:33:56;;;;;;;0.82;0.82;;;22.40;53.60;;;26.10;36.62;100643.75;5114343;28;20092;-35
2021/08/19 02:36:22;;;;;;;1.02;0.93;;;22.40;53.60;;;26.09;36.62;100642.03;5114424;28;20044;-35
2021/08/19 02:38:48;;;;;;;1.00;0.90;;;22.40;53.60;;;26.09;36.75;100647.38;5114109;28;20046;-35
2021/08/19 02:41:13;;;;;;;1.10;1.00;;;22.40;53.60;;;26.10;36.55;100649.09;5114169;28;20089;-35
2021/08/19 02:43:45;;;;;;;0.90;0.90;;;22.30;53.50;;;26.08;36.69;100649.22;5113996;28;20050;-35
2021/08/19 02:46:12;;;;;;;0.90;0.90;;;22.40;54.20;;;26.05;36.73;100654.84;5114315;28;20054;-35
2021/08/19 02:48:38;;;;;;;0.95;0.95;;;22.40;53.60;;;26.06;36.63;100649.34;5113485;28;20400;-36
2021/08/19 02:51:04;;;;;;;0.90;0.90;;;22.30;53.60;;;26.07;36.70;100651.03;5114317;28;20370;-35
2021/08/19 02:53:30;;;;;;;1.00;1.00;;;22.40;53.70;;;26.05;36.70;100641.44;5113872;28;20047;-35
2021/08/19 02:55:55;;;;;;;0.80;0.80;;;22.30;53.60;;;26.06;36.75;100649.34;5114414;28;20043;-35
2021/08/19 02:58:21;;;;;;;0.80;0.80;;;22.30;53.60;;;26.06;36.79;100646.69;5113830;28;20051;-35
2021/08/19 03:00:47;;;;;;;0.95;0.90;;;22.30;53.60;;;26.04;36.76;100647.78;5113784;28;20048;-35
2021/08/19 03:03:12;;;;;;;1.00;1.00;;;22.30;53.60;;;26.03;36.80;100643.44;5114008;28;20400;-35
2021/08/19 03:05:38;;;;;;;0.80;0.80;;;22.30;53.60;;;26.04;36.74;100651.34;5113646;28;20459;-35
2021/08/19 03:08:04;;;;;;;0.88;0.88;;;22.30;53.60;;;26.01;36.73;100645.38;5113515;28;20381;-35
2021/08/19 03:10:30;;;;;;;0.75;0.75;;;22.30;53.60;;;26.01;36.69;100648.91;5113724;28;20480;-35
2021/08/19 03:12:55;;;;;;;0.93;0.93;;;22.30;53.60;;;26.05;36.69;100654.84;5113672;28;20047;-35
2021/08/19 03:15:21;;;;;;;1.23;1.13;;;22.30;53.70;;;26.04;36.63;100648.66;5113882;28;20051;-35
2021/08/19 03:17:47;;;;;;;0.90;0.90;;;22.30;53.60;;;26.02;36.77;100655.94;5113547;28;20123;-35
2021/08/19 03:20:13;;;;;;;1.00;1.00;;;22.30;53.60;;;26.04;36.67;100655.81;5113286;28;20135;-35
2021/08/19 03:22:39;;;;;;;0.80;0.80;;;22.30;53.70;;;26.00;36.68;100644.53;5113445;28;20040;-35
2021/08/19 03:25:08;;;;;;;0.90;0.80;;;22.30;53.70;;;26.03;36.91;100649.63;5113467;28;20084;-35
2021/08/19 03:27:34;;;;;;;0.98;0.98;;;22.30;53.70;;;26.00;36.79;100646.38;5113313;28;20055;-35
2021/08/19 03:30:00;;;;;;;1.17;0.80;;;22.30;53.70;;;26.00;36.81;100639.16;5113237;28;20408;-35
2021/08/19 03:32:26;;;;;;;0.80;0.80;;;22.30;53.70;;;26.02;36.72;100647.06;5113309;28;20054;-35
2021/08/19 03:34:52;;;;;;;0.93;0.90;;;22.30;53.70;;;26.02;36.73;100650.59;5113316;28;20082;-35
2021/08/19 03:37:17;;;;;;;0.77;0.77;;;22.30;53.70;;;26.02;36.76;100637.19;5113163;28;20041;-35
2021/08/19 03:39:43;;;;;;;0.75;0.75;;;22.30;53.70;;;26.01;36.74;100637.31;5113220;28;20069;-35
2021/08/19 03:42:09;;;;;;;0.80;0.80;;;22.30;53.70;;;26.04;36.76;100634.38;5113197;28;20489;-35
2021/08/19 03:44:35;;;;;;;0.80;0.80;;;22.30;53.70;;;26.02;36.80;100633.69;5113266;28;20485;-35
2021/08/19 03:47:01;;;;;;;1.00;0.90;;;22.30;53.60;;;26.04;36.81;100639.75;5113343;28;20046;-35
2021/08/19 03:49:27;;;;;;;0.80;0.80;;;22.30;53.70;;;26.02;36.72;100631.00;5113370;28;20093;-35
2021/08/19 03:51:53;;;;;;;1.30;1.20;;;22.30;53.60;;;26.04;36.68;100642.44;5113156;28;20043;-35
2021/08/19 03:54:19;;;;;;;1.00;1.00;;;22.30;53.70;;;26.04;36.72;100645.97;5113255;28;20362;-35
2021/08/19 03:56:45;;;;;;;1.02;0.93;;;22.30;53.70;;;26.01;36.89;100640.88;5112817;28;20093;-35
2021/08/19 03:59:11;;;;;;;0.80;0.80;;;22.30;53.70;;;26.03;36.73;100641.59;5112541;28;20057;-35
2021/08/19 04:01:37;;;;;;;0.90;0.90;;;22.30;53.70;;;26.01;36.63;100640.00;5113249;28;20044;-35
2021/08/19 04:04:03;;;;;;;0.80;0.80;;;22.30;53.70;;;26.03;36.89;100640.75;5113165;28;20051;-35
2021/08/19 04:06:29;;;;;;;0.75;0.75;;;22.30;53.70;;;26.05;36.92;100649.50;5113181;28;20048;-35
2021/08/19 04:08:55;;;;;;;1.10;1.00;;;22.30;53.70;;;26.02;36.70;100642.56;5113350;28;20055;-35
2021/08/19 04:11:20;;;;;;;0.95;0.95;;;22.30;53.70;;;26.02;36.82;100650.59;5112776;28;20105;-35
2021/08/19 04:13:46;;;;;;;0.77;0.77;;;22.30;53.70;;;26.03;36.76;100648.78;5112837;28;20051;-35
2021/08/19 04:16:12;;;;;;;1.15;1.05;;;22.30;53.70;;;26.05;36.86;100653.00;5112688;28;20062;-35
2021/08/19 04:18:38;;;;;;;1.13;1.08;;;22.30;53.70;;;26.05;36.61;100641.44;5113070;28;20052;-35
2021/08/19 04:21:04;;;;;;;1.08;1.00;;;22.30;53.70;;;26.02;36.70;100639.03;5112552;28;20405;-35
2021/08/19 04:23:30;;;;;;;1.73;1.00;;;22.30;53.70;;;26.04;36.78;100629.91;5112668;28;20043;-35
2021/08/19 04:25:56;;;;;;;1.00;1.00;;;22.30;53.70;;;26.03;36.78;100632.72;5112875;28;20040;-35
2021/08/19 04:28:22;;;;;;;0.93;0.90;;;22.30;53.70;;;26.05;36.75;100642.28;5112573;28;20048;-35
2021/08/19 04:30:48;;;;;;;0.80;0.80;;;22.30;53.70;;;26.06;36.66;100645.81;5112530;28;20127;-35
2021/08/19 04:33:14;;;;;;;0.70;0.70;;;22.30;53.70;;;26.04;36.79;100637.94;5113200;28;20135;-35
2021/08/19 04:35:41;;;;;;;0.95;0.90;;;22.30;53.70;;;26.04;36.70;100653.13;5112437;28;20055;-35
2021/08/19 04:38:07;;;;;;;0.93;0.88;;;22.30;53.70;;;26.05;36.70;100657.53;5112415;28;20439;-35
2021/08/19 04:40:33;;;;;;;0.98;0.90;;;22.30;53.70;;;26.07;36.76;100663.59;5112489;28;20051;-35
2021/08/19 04:42:59;;;;;;;0.90;0.90;;;22.30;53.70;;;26.06;36.64;100661.88;5094450;28;20499;-35
2021/08/19 04:45:25;;;;;;;0.80;0.80;;;22.30;53.60;;;26.09;36.72;100666.16;5112433;28;20039;-35
2021/08/19 04:47:50;;;;;;;0.80;0.80;;;22.30;53.60;;;26.06;36.65;100653.84;5112184;28;20059;-35
2021/08/19 04:50:16;;;;;;;0.80;0.80;;;22.30;53.60;;;26.09;36.64;100658.94;5112255;28;20043;-35
2021/08/19 04:52:42;;;;;;;0.90;0.90;;;22.30;53.60;;;26.10;36.62;100667.84;5112360;28;20039;-35
2021/08/19 04:55:08;;;;;;;0.85;0.85;;;22.30;53.60;;;26.11;36.65;100664.16;5112279;28;20485;-35
2021/08/19 04:57:34;;;;;;;0.70;0.70;;;22.30;53.60;;;26.10;36.68;100659.81;5112066;28;20446;-35
2021/08/19 05:00:00;;;;;;;1.25;1.15;;;22.30;53.60;;;26.13;36.59;100663.06;5112466;28;20043;-35
2021/08/19 05:02:25;;;;;;;0.95;0.88;;;22.30;53.60;;;26.16;36.54;100656.59;5112105;28;20048;-36
2021/08/19 05:04:51;;;;;;;0.80;0.80;;;22.30;53.60;;;26.16;36.57;100669.97;5112177;28;20120;-35
2021/08/19 05:07:17;;;;;;;0.98;0.98;;;22.40;53.60;;;26.17;36.52;100671.69;5112340;28;20052;-35
2021/08/19 05:09:43;;;;;;;0.80;0.80;;;22.40;53.50;;;26.18;36.58;100670.72;5112060;28;20052;-35
2021/08/19 05:12:08;;;;;;;0.82;0.82;;;22.40;53.50;;;26.18;36.62;100665.34;5114628;28;20059;-35
2021/08/19 05:14:34;;;;;;;1.25;1.08;;;22.40;53.60;;;26.17;36.50;100674.38;5115493;28;20055;-35
2021/08/19 05:17:00;;;;;;;0.88;0.88;;;22.40;53.60;;;26.16;36.51;100678.88;5115447;28;20063;-35
2021/08/19 05:19:27;;;;;;;1.10;1.10;;;22.40;53.60;;;26.14;36.43;100671.94;5115636;28;20044;-35
2021/08/19 05:21:53;;;;;;;0.80;0.80;;;22.30;53.50;;;26.17;36.44;100680.56;5115465;28;20058;-35
2021/08/19 05:24:20;;;;;;;1.15;1.02;;;22.30;53.50;;;26.14;36.57;100680.81;5115334;28;20484;-35
2021/08/19 05:26:46;;;;;;;1.10;1.00;;;22.30;53.50;;;26.16;36.56;100681.56;5114767;28;20047;-35
2021/08/19 05:29:12;;;;;;;0.98;0.88;;;22.40;53.60;;;26.16;36.39;100684.25;5115749;28;20047;-35
2021/08/19 05:31:38;;;;;;;1.10;1.00;;;22.40;53.60;;;26.16;36.39;100686.06;5115111;28;20052;-35
2021/08/19 05:34:08;;;;;;;0.98;0.98;;;22.40;53.50;;;26.15;36.44;100679.84;5114967;28;20059;-35
2021/08/19 05:36:34;;;;;;;1.00;1.00;;;22.40;53.60;;;26.18;36.51;100702.88;5114959;28;20152;-36
2021/08/19 05:39:00;;;;;;;0.90;0.90;;;22.30;53.50;;;26.16;36.46;100694.97;5115309;28;20055;-35
2021/08/19 05:41:26;;;;;;;0.70;0.70;;;22.30;53.50;;;26.17;36.50;100699.31;5114889;28;20116;-35
2021/08/19 05:43:52;;;;;;;0.82;0.82;;;22.30;53.50;;;26.15;36.46;100708.50;5115171;28;20386;-35
2021/08/19 05:46:17;;;;;;;1.05;0.95;;;22.30;53.60;;;26.16;36.50;100713.72;5114797;28;20481;-35
2021/08/19 05:48:43;;;;;;;0.80;0.80;;;22.30;53.60;;;26.14;36.57;100710.31;5114717;28;20047;-35
2021/08/19 05:51:10;;;;;;;1.00;1.00;;;22.40;53.60;;;26.13;36.50;100715.78;5115131;28;20062;-35
2021/08/19 05:53:36;;;;;;;0.90;0.90;;;22.30;53.60;;;26.13;36.46;100713.97;5114969;28;20039;-35
2021/08/19 05:56:01;;;;;;;0.88;0.88;;;22.30;53.60;;;26.15;36.62;100713.84;5114759;28;20083;-35
2021/08/19 05:58:27;;;;;;;0.90;0.90;;;22.30;53.50;;;26.17;36.51;100726.13;5114627;28;20386;-35
2021/08/19 06:00:53;;;;;;;0.90;0.90;;;22.40;53.60;;;26.16;36.33;100720.88;5114605;28;20405;-36
2021/08/19 06:03:20;;;;;;;0.90;0.90;;;22.40;53.60;;;26.15;36.51;100733.44;5114527;28;20035;-35
2021/08/19 06:05:47;;;;;;;0.90;0.90;;;22.30;53.60;;;26.15;36.57;100724.56;5114349;28;20563;-35
2021/08/19 06:08:13;;;;;;;0.98;0.98;;;22.30;53.50;;;26.17;36.75;100728.81;5114889;28;20039;-35
2021/08/19 06:10:38;;;;;;;0.82;0.80;;;22.30;53.60;;;26.19;36.38;100728.66;5114604;28;20453;-35
2021/08/19 06:13:04;;;;;;;0.80;0.80;;;22.40;53.60;;;26.21;36.51;100727.56;5114423;28;20054;-36
2021/08/19 06:15:30;;;;;;;0.75;0.75;;;22.40;53.50;;;26.23;36.46;100716.72;5114396;28;20511;-35
2021/08/19 06:17:56;;;;;;;1.20;1.10;;;22.40;53.40;;;26.28;36.35;100724.34;5114179;28;20088;-35
2021/08/19 06:20:22;;;;;;;0.70;0.70;;;22.50;53.40;;;26.31;36.38;100721.41;5114257;28;20046;-35
2021/08/19 06:22:50;;;;;;;0.85;0.80;;;22.50;53.40;;;26.33;36.19;100722.97;5113646;28;20043;-35
2021/08/19 06:25:16;;;;;;;0.90;0.90;;;22.50;53.20;;;26.34;36.15;100721.13;5114468;28;20044;-35
2021/08/19 06:27:42;;;;;;;0.90;0.90;;;22.50;53.20;;;26.40;36.12;100721.44;5114190;28;20044;-35
2021/08/19 06:30:08;;;;;;;1.30;1.20;;;22.50;53.10;;;26.42;35.87;100724.00;5113998;28;20051;-35
2021/08/19 06:32:34;;;;;;;1.00;0.90;;;22.60;53.10;;;26.47;36.02;100729.81;5114276;28;20062;-35
2021/08/19 06:35:00;;;;;;;1.08;1.00;;;22.60;53.00;;;26.51;35.94;100723.16;5114096;28;20481;-35
2021/08/19 06:37:25;;;;;;;1.13;0.95;;;22.60;52.90;;;26.52;35.92;100716.84;5113931;28;20059;-35
2021/08/19 06:39:51;;;;;;;1.05;1.02;;;22.60;52.90;;;26.52;35.82;100721.34;5114367;28;20416;-35
2021/08/19 06:42:17;;;;;;;0.90;0.90;;;22.60;52.90;;;26.55;35.73;100729.97;5113820;28;20492;-35
2021/08/19 06:44:43;;;;;;;1.05;1.00;;;22.60;53.00;;;26.55;35.94;100731.81;5113722;28;20048;-35
2021/08/19 06:47:08;;;;;;;1.00;1.00;;;22.60;53.00;;;26.54;35.80;100727.44;5113794;28;20046;-35
2021/08/19 06:49:34;;;;;;;1.20;1.10;;;22.60;53.00;;;26.52;35.81;100727.56;5113928;28;20055;-35
2021/08/19 06:52:00;;;;;;;0.85;0.85;;;22.60;53.10;;;26.49;35.99;100729.66;5114285;28;20056;-35
2021/08/19 06:54:26;;;;;;;0.82;0.82;;;22.60;53.20;;;26.48;35.97;100736.88;5113709;28;20051;-35
2021/08/19 06:56:52;;;;;;;0.98;0.98;;;22.60;53.20;;;26.47;36.04;100745.88;5113885;28;20051;-35
2021/08/19 06:59:18;;;;;;;0.90;0.90;;;22.50;53.20;;;26.46;36.13;100744.19;5113528;28;20044;-35
2021/08/19 07:01:44;;;;;;;0.90;0.90;;;22.50;53.20;;;26.41;36.07;100739.25;5113546;28;20378;-35
2021/08/19 07:04:09;;;;;;;0.98;0.90;;;22.50;53.30;;;26.41;36.04;100736.56;5113904;28;20369;-35
2021/08/19 07:06:35;;;;;;;0.90;0.90;;;22.50;53.20;;;26.44;36.09;100738.94;5113480;28;20397;-35
2021/08/19 07:09:01;;;;;;;0.82;0.82;;;22.50;53.20;;;26.46;35.94;100741.50;5113548;28;20472;-35
2021/08/19 07:11:27;;;;;;;1.08;0.90;;;22.60;53.20;;;26.47;36.15;100739.69;5113739;28;20047;-35
2021/08/19 07:13:53;;;;;;;0.85;0.85;;;22.60;53.20;;;26.44;36.01;100748.81;5113405;28;20506;-35
2021/08/19 07:16:19;;;;;;;0.93;0.93;;;22.50;53.20;;;26.46;36.04;100746.84;5113210;28;20108;-35
2021/08/19 07:18:45;;;;;;;0.90;0.90;;;22.60;53.20;;;26.47;35.88;100755.78;5113692;28;20044;-35
2021/08/19 07:21:11;;;;;;;1.02;0.80;;;22.60;53.20;;;26.44;35.95;100741.63;5113683;28;20051;-35
2021/08/19 07:23:37;;;;;;;0.95;0.95;;;22.60;53.20;;;26.47;35.93;100745.03;5113270;28;20400;-35
2021/08/19 07:26:03;;;;;;;0.90;0.90;;;22.60;53.20;;;26.51;36.00;100757.19;5113932;28;20051;-35
2021/08/19 07:28:28;;;;;;;1.00;1.00;;;22.60;53.10;;;26.52;35.99;100740.13;5113558;28;20078;-35
2021/08/19 07:30:54;;;;;;;0.82;0.82;;;22.60;53.00;;;26.59;35.78;100746.63;5113161;28;20051;-35
2021/08/19 07:33:20;;;;;;;0.90;0.90;;;22.70;52.90;;;26.61;35.91;100745.53;5092853;28;20086;-34
2021/08/19 07:35:49;;;;;;;0.88;0.88;;;22.70;52.80;;;26.65;35.61;100743.47;5112750;28;20503;-34
2021/08/19 07:38:18;;;;;;;0.82;0.82;;;22.70;52.70;;;26.71;35.62;100745.59;5113046;28;20086;-34
2021/08/19 07:40:45;;;;;;;1.10;1.00;;;22.80;52.70;;;26.71;35.44;100745.59;5113004;28;20043;-34
2021/08/19 07:43:11;;;;;;;0.70;0.70;;;22.80;52.70;;;26.73;35.49;100749.00;5113056;28;20043;-34
2021/08/19 07:45:37;;;;;;;1.10;1.00;;;22.80;52.70;;;26.77;35.27;100750.41;5113037;28;20089;-34
2021/08/19 07:48:11;;;;;;;0.77;0.77;;;22.80;52.60;;;26.80;35.50;100752.81;5113143;28;20096;-35
2021/08/19 07:50:37;;;;;;;1.40;1.00;;;22.90;52.50;;;26.85;35.17;100757.78;5113012;28;20051;-34
2021/08/19 07:53:04;;;;;;;0.70;0.70;;;22.90;52.40;;;26.95;35.28;100763.19;5112895;28;20126;-34
2021/08/19 07:55:30;;;;;;;1.08;1.08;;;23.00;52.30;;;26.93;35.22;100755.28;5112613;28;20047;-34
2021/08/19 07:57:56;;;;;;;0.82;0.82;;;23.00;52.20;;;26.94;35.14;100767.69;5094269;28;20504;-34
2021/08/19 08:00:30;;;;;;;1.40;0.80;;;22.90;52.30;;;26.90;35.23;100765.44;5112666;28;20048;-34
2021/08/19 08:02:57;;;;;;;0.88;0.88;;;22.90;52.40;;;26.88;35.10;100767.38;5112696;28;20066;-34
2021/08/19 08:05:25;;;;;;;0.80;0.80;;;22.80;52.50;;;26.82;35.18;100766.09;5112621;28;20051;-34
2021/08/19 08:07:52;;;;;;;1.13;0.90;;;22.80;53.10;;;26.77;35.46;100768.34;5094416;28;20076;-34
2021/08/19 08:10:18;;;;;;;0.90;0.90;;;22.70;52.70;;;26.72;35.38;100773.28;5112646;28;20105;-34
2021/08/19 08:12:44;;;;;;;0.70;0.70;;;22.70;52.80;;;26.74;35.32;100771.28;5112826;28;20116;-34
2021/08/19 08:15:11;;;;;;;1.20;1.10;;;22.70;52.80;;;26.70;35.43;100762.69;5094622;28;20047;-34
2021/08/19 08:17:38;;;;;;;0.80;0.80;;;22.70;52.80;;;26.71;35.79;100774.25;5112474;28;20408;-34
2021/08/19 08:20:09;;;;;;;0.90;0.90;;;22.70;52.90;;;26.65;35.52;100775.66;5112525;28;20059;-35
2021/08/19 08:22:36;;;;;;;0.82;0.82;;;22.70;52.80;;;26.69;35.51;100777.06;5112756;28;20397;-35
2021/08/19 08:25:05;;;;;;;0.90;0.90;;;22.70;52.80;;;26.70;35.75;100781.44;5112690;28;20048;-34
2021/08/19 08:27:31;;;;;;;0.88;0.88;;;22.70;52.70;;;26.70;35.40;100780.63;5112720;28;20043;-34
2021/08/19 08:29:58;;;;;;;1.10;0.98;;;22.70;52.70;;;26.70;35.37;100786.81;5112957;28;20075;-36
2021/08/19 08:32:23;;;;;;;0.85;0.85;;;22.70;52.70;;;26.68;35.55;100787.91;5094063;28;20141;-34
2021/08/19 08:34:49;;;;;;;1.17;1.08;;;22.70;52.80;;;26.67;35.45;100796.97;5112235;28;20502;-34
2021/08/19 08:37:15;;;;;;;0.90;0.90;;;22.70;52.80;;;26.63;35.57;100793.72;5112039;28;20051;-35
2021/08/19 08:39:41;;;;;;;1.08;1.05;;;22.70;52.80;;;26.63;35.73;100796.38;5112364;28;20047;-35
2021/08/19 08:42:12;;;;;;;1.10;1.00;;;22.70;52.90;;;26.57;35.67;100800.41;5112255;28;20113;-35
2021/08/19 08:44:39;;;;;;;0.85;0.80;;;22.70;53.00;;;26.58;35.79;100794.06;5112808;28;20134;-33
2021/08/19 08:47:05;;;;;;;1.00;1.00;;;22.60;52.90;;;26.54;35.72;100798.00;5115597;28;20048;-34
2021/08/19 08:49:31;;;;;;;0.73;0.73;;;22.60;53.00;;;26.53;35.83;100801.66;5116065;28;20054;-34
2021/08/19 08:51:58;;;;;;;1.20;1.10;;;22.60;53.00;;;26.53;35.93;100806.16;5116091;28;20044;-36
2021/08/19 08:54:28;;;;;;;0.95;0.95;;;22.60;53.60;;;26.49;35.87;100810.09;5115686;28;20074;-35
2021/08/19 08:56:56;;;;;;;1.03;1.03;;;22.60;53.00;;;26.51;36.00;100803.59;5115744;28;20059;-34
2021/08/19 08:59:22;;;;;;;1.10;1.10;;;22.70;53.00;;;26.55;35.74;100805.06;5115541;28;20039;-34
2021/08/19 09:01:48;;;;;;;1.08;1.00;;;22.70;52.80;;;26.64;35.75;100810.63;5115838;28;20066;-34
2021/08/19 09:04:14;;;;;;;0.90;0.90;;;22.80;52.70;;;26.70;35.52;100818.16;5115433;28;20043;-34
2021/08/19 09:06:43;;;;;;;0.70;0.70;;;22.80;52.60;;;26.74;35.58;100820.41;5115011;28;20040;-35
2021/08/19 09:09:26;;;;;;;1.30;1.20;;;22.80;52.50;;;26.74;35.69;100816.91;5115495;28;20043;-34
2021/08/19 09:12:05;;;;;;;0.90;0.90;;;22.90;52.50;;;26.78;35.42;100819.19;5115359;28;20572;-35
2021/08/19 09:14:36;;;;;;;0.90;0.90;;;22.80;52.40;;;26.76;35.31;100815.78;5115518;28;20066;-35
2021/08/19 09:17:04;;;;;;;0.90;0.90;;;22.80;52.50;;;26.78;35.39;100827.22;5115463;28;20108;-34
2021/08/19 09:19:33;;;;;;;1.00;0.90;;;22.80;52.50;;;26.75;35.28;100822.13;5115426;28;20392;-35
2021/08/19 09:22:05;;;;;;;0.80;0.80;;;22.80;52.50;;;26.73;35.34;100829.47;5115269;28;20481;-35
2021/08/19 09:24:35;;;;;;;0.80;0.80;;;22.80;52.60;;;26.74;35.50;100827.63;5115478;28;20047;-34
2021/08/19 09:27:14;;;;;;;1.17;0.88;;;22.80;52.60;;;26.73;35.57;100829.47;5115029;28;20046;-34
2021/08/19 09:29:41;;;;;;;1.08;1.08;;;22.80;52.60;;;26.74;35.45;100828.47;5115064;28;20134;-34
2021/08/19 09:32:19;;;;;;;0.90;0.90;;;22.80;52.60;;;26.72;35.42;100835.81;5115372;28;20442;-35
2021/08/19 09:34:49;;;;;;;1.00;1.00;;;22.80;52.70;;;26.73;35.60;100828.59;5115093;28;20047;-35
2021/08/19 09:37:18;;;;;;;1.05;0.95;;;22.80;52.60;;;26.73;35.51;100823.22;5115114;28;20047;-34
2021/08/19 09:39:45;;;;;;;0.93;0.93;;;22.80;52.60;;;26.71;35.49;100819.84;5115437;28;20039;-35
2021/08/19 09:42:13;;;;;;;1.13;0.93;;;22.80;52.60;;;26.75;35.50;100826.66;5114907;28;20225;-35
2021/08/19 09:44:41;;;;;;;0.90;0.90;;;22.80;52.60;;;26.75;35.30;100826.66;5114905;28;20039;-35
2021/08/19 09:47:29;;;;;;;0.80;0.80;;;22.80;52.50;;;26.76;35.72;100820.28;5114904;28;20477;-35
2021/08/19 09:50:11;;;;;;;1.10;1.00;;;22.80;52.50;;;26.83;35.54;100828.66;5115049;28;20131;-35
2021/08/19 09:52:37;;;;;;;0.95;0.90;;;22.90;52.40;;;26.84;35.24;100820.47;5115097;28;20100;-34
2021/08/19 09:55:29;;;;;;;1.13;0.90;;;22.90;52.30;;;26.86;35.29;100829.22;5114736;28;20044;-35
2021/08/19 09:57:58;;;;;;;1.38;1.15;;;22.90;52.30;;;26.86;35.27;100831.91;5095555;28;20056;-35
2021/08/19 10:00:42;;;;;;;0.88;0.88;;;22.90;52.30;;;26.85;35.49;100827.53;5096442;28;20050;-35
2021/08/19 10:03:10;;;;;;;0.90;0.90;;;22.90;52.20;;;26.87;35.33;100816.69;5114638;28;20043;-35
2021/08/19 10:05:37;;;;;;;0.80;0.80;;;22.90;52.30;;;26.87;35.24;100833.63;5114553;28;20058;-35
2021/08/19 10:08:04;;;;;;;1.13;1.00;;;22.90;52.30;;;26.87;35.21;100830.94;5114397;28;20051;-35
2021/08/19 10:10:30;;;;;;;1.00;1.00;;;22.90;52.30;;;26.84;35.32;100827.69;5114452;28;20047;-34
2021/08/19 10:12:58;;;;;;;1.05;0.95;;;22.90;52.40;;;26.84;35.31;100839.25;5114395;28;20397;-35